Time;durP1;ratioP1;P1;durP2;ratioP2;P2;SDS_P1;SDS_P2;PMS_P1;PMS_P2;Temp;Humidity;BMP_temperature;BMP_pressure;BME280_temperature;BME280_humidity;BME280_pressure;Samples;Min_cycle;Max_cycle;Signal;HPM_P1;HPM_P2
2022/04/06 00:00:14;;;;;;;0.40;0.27;;;;;;;7.74;100.00;95064.47;5093751;28;20416;-54
2022/04/06 00:02:42;;;;;;;0.33;0.30;;;;;;;7.77;100.00;95052.59;5093633;28;20530;-54
2022/04/06 00:05:11;;;;;;;0.37;0.27;;;;;;;7.87;100.00;95071.88;5093589;28;20431;-54
2022/04/06 00:07:42;;;;;;;0.70;0.63;;;;;;;7.21;100.00;94975.09;5093729;28;20432;-54
2022/04/06 00:10:13;;;;;;;0.30;0.20;;;;;;;7.74;100.00;95061.03;5092255;28;20480;-54
2022/04/06 00:12:45;;;;;;;0.30;0.20;;;;;;;7.42;100.00;95061.91;5093572;28;20436;-54
2022/04/06 00:15:14;;;;;;;0.30;0.20;;;;;;;7.23;100.00;95058.13;5093573;28;20429;-54
2022/04/06 00:17:43;;;;;;;0.53;0.43;;;;;;;7.37;100.00;95064.53;5093592;28;20432;-54
2022/04/06 00:20:11;;;;;;;0.50;0.47;;;;;;;7.44;100.00;95066.91;5093541;28;20421;-54
2022/04/06 00:22:42;;;;;;;0.50;0.33;;;;;;;7.13;100.00;95060.69;5093355;28;20460;-54
2022/04/06 00:25:11;;;;;;;0.80;0.80;;;;;;;7.26;100.00;95068.13;5093774;28;20861;-54
2022/04/06 00:27:40;;;;;;;0.97;0.67;;;;;;;7.27;100.00;95067.09;5093372;28;20432;-54
2022/04/06 00:30:09;;;;;;;1.90;1.60;;;;;;;7.15;100.00;95063.84;5093250;28;20474;-54
2022/04/06 00:32:38;;;;;;;0.50;0.50;;;;;;;6.86;100.00;95057.31;5093576;28;20786;-54
2022/04/06 00:37:55;;;;;;;0.30;0.20;;;;;;;6.78;100.00;95057.78;5093048;28;20437;-54
2022/04/06 00:40:24;;;;;;;0.37;0.30;;;;;;;6.92;100.00;95056.31;5093475;28;20456;-54
2022/04/06 00:42:53;;;;;;;0.30;0.20;;;;;;;6.47;100.00;95063.84;5093099;28;20846;-54
2022/04/06 00:45:23;;;;;;;0.30;0.20;;;;;;;6.66;100.00;95036.88;5093106;28;20428;-54
2022/04/06 00:47:53;;;;;;;0.40;0.30;;;;;;;7.05;100.00;95069.06;5092913;28;20433;-54
2022/04/06 00:50:23;;;;;;;0.40;0.30;;;;;;;7.33;100.00;95065.28;5093190;28;20472;-54
2022/04/06 00:52:55;;;;;;;0.40;0.40;;;;;;;7.20;100.00;95065.72;5092812;28;20929;-53
2022/04/06 00:55:28;;;;;;;0.30;0.20;;;;;;;6.09;100.00;94985.84;5092493;28;20421;-53
2022/04/06 00:57:57;;;;;;;1.80;0.30;;;;;;;6.32;100.00;95078.41;5092869;28;20586;-54
2022/04/06 01:00:27;;;;;;;0.40;0.20;;;;;;;6.75;100.00;95072.25;5092538;28;20844;-54
2022/04/06 01:02:55;;;;;;;0.30;0.20;;;;;;;6.97;100.00;95067.69;5092461;28;20516;-53
2022/04/06 01:05:25;;;;;;;0.60;0.60;;;;;;;7.06;100.00;95069.84;5092460;28;20920;-54
2022/04/06 01:07:56;;;;;;;2.97;2.83;;;;;;;6.80;100.00;95082.84;5092693;28;20427;-54
2022/04/06 01:10:26;;;;;;;0.93;0.93;;;;;;;6.60;100.00;95079.22;5092266;28;20559;-54
2022/04/06 01:12:56;;;;;;;0.30;0.20;;;;;;;6.57;100.00;95085.00;5092559;28;20478;-54
2022/04/06 01:15:26;;;;;;;0.60;0.60;;;;;;;6.62;100.00;95085.84;5092375;28;20500;-54
2022/04/06 01:17:54;;;;;;;0.83;0.80;;;;;;;6.64;100.00;95082.94;5092106;28;20464;-54
2022/04/06 01:20:22;;;;;;;0.60;0.60;;;;;;;6.78;100.00;95087.53;5092199;28;20512;-54
2022/04/06 01:22:52;;;;;;;0.50;0.50;;;;;;;6.86;100.00;95086.28;5091885;28;20843;-55
2022/04/06 01:25:21;;;;;;;0.30;0.20;;;;;;;6.88;100.00;95090.25;5092370;28;20420;-54
2022/04/06 01:27:49;;;;;;;0.30;0.20;;;;;;;6.93;100.00;95094.78;5092375;28;20519;-54
2022/04/06 01:30:17;;;;;;;0.30;0.20;;;;;;;6.89;100.00;95094.50;5091960;28;20428;-54
2022/04/06 01:32:46;;;;;;;0.30;0.20;;;;;;;6.90;100.00;95087.38;5091937;28;20500;-54
2022/04/06 01:35:14;;;;;;;0.60;0.50;;;;;;;6.76;100.00;95096.72;5092244;28;20428;-54
2022/04/06 01:37:43;;;;;;;0.50;0.50;;;;;;;6.75;100.00;95088.06;5091869;28;20463;-54
2022/04/06 01:40:13;;;;;;;0.40;0.40;;;;;;;6.86;100.00;95096.81;5091877;28;20460;-54
2022/04/06 01:42:41;;;;;;;0.40;0.40;;;;;;;6.79;100.00;95090.97;5092185;28;20890;-54
2022/04/06 01:45:10;;;;;;;0.50;0.47;;;;;;;6.63;100.00;95089.28;5091861;28;20985;-54
2022/04/06 01:47:39;;;;;;;0.30;0.30;;;;;;;6.74;100.00;95101.47;5091386;28;20512;-54
2022/04/06 01:52:53;;;;;;;0.30;0.20;;;;;;;6.65;100.00;95105.59;5091965;28;20432;-55
2022/04/06 01:55:23;;;;;;;0.30;0.20;;;;;;;6.64;100.00;95110.06;5091752;28;20464;-55
2022/04/06 01:57:52;;;;;;;1.37;1.27;;;;;;;6.56;100.00;95101.81;5091530;28;20472;-55
2022/04/06 02:00:20;;;;;;;0.70;0.40;;;;;;;6.54;100.00;95111.81;5091628;28;20420;-55
2022/04/06 02:02:51;;;;;;;0.30;0.30;;;;;;;6.17;100.00;95109.84;5091972;28;20519;-54
2022/04/06 02:05:21;;;;;;;0.30;0.20;;;;;;;5.64;100.00;94989.53;5092036;28;20797;-54
2022/04/06 02:07:50;;;;;;;0.30;0.20;;;;;;;6.37;100.00;95109.28;5093734;28;20468;-54
2022/04/06 02:10:20;;;;;;;0.53;0.50;;;;;;;6.49;100.00;95114.38;5095652;28;20475;-55
2022/04/06 02:12:51;;;;;;;0.60;0.60;;;;;;;6.18;100.00;95111.44;5095668;28;20995;-54
2022/04/06 02:15:20;;;;;;;0.30;0.30;;;;;;;6.33;100.00;95118.69;5095707;28;20432;-54
2022/04/06 02:17:49;;;;;;;0.30;0.20;;;;;;;6.21;100.00;95097.78;5095933;28;20511;-54
2022/04/06 02:20:18;;;;;;;0.30;0.30;;;;;;;6.13;100.00;95077.19;5095981;28;20471;-54
2022/04/06 02:22:50;;;;;;;5.40;0.50;;;;;;;6.29;100.00;95118.41;5095458;28;20933;-54
2022/04/06 02:25:18;;;;;;;0.30;0.20;;;;;;;6.43;100.00;95115.38;5095761;28;20513;-54
2022/04/06 02:27:50;;;;;;;0.40;0.30;;;;;;;6.48;100.00;95104.91;5095420;28;20802;-54
2022/04/06 02:30:20;;;;;;;0.30;0.20;;;;;;;6.52;100.00;95106.00;5095432;28;20961;-54
2022/04/06 02:32:49;;;;;;;0.30;0.20;;;;;;;6.47;100.00;95117.28;5095136;28;21156;-54
2022/04/06 02:35:18;;;;;;;0.30;0.30;;;;;;;6.44;100.00;95116.97;5094614;28;20482;-54
2022/04/06 02:37:46;;;;;;;0.30;0.20;;;;;;;6.40;100.00;95120.09;5094872;28;20519;-54
2022/04/06 02:40:16;;;;;;;0.30;0.20;;;;;;;6.30;100.00;95125.25;5095572;28;20512;-55
2022/04/06 02:42:45;;;;;;;0.50;0.50;;;;;;;6.35;100.00;95124.50;5095441;28;20436;-54
2022/04/06 02:45:15;;;;;;;0.50;0.33;;;;;;;6.12;100.00;95086.09;5095168;28;20471;-55
2022/04/06 02:47:47;;;;;;;0.40;0.30;;;;;;;6.34;100.00;95136.09;5094993;28;20432;-54
2022/04/06 02:50:16;;;;;;;0.40;0.40;;;;;;;6.36;100.00;95136.63;5095362;28;20432;-54
2022/04/06 02:52:44;;;;;;;0.30;0.20;;;;;;;6.36;100.00;95145.34;5094850;28;20551;-55
2022/04/06 02:55:13;;;;;;;0.30;0.20;;;;;;;6.32;100.00;95144.22;5095309;28;20455;-54
2022/04/06 02:57:43;;;;;;;0.30;0.20;;;;;;;6.28;100.00;95143.13;5094882;28;20904;-54
2022/04/06 03:00:13;;;;;;;0.30;0.20;;;;;;;6.11;100.00;95118.72;5094898;28;20417;-54
2022/04/06 03:02:43;;;;;;;0.60;0.60;;;;;;;5.87;100.00;95087.69;5094530;28;20460;-55
2022/04/06 03:05:12;;;;;;;0.30;0.20;;;;;;;6.24;100.00;95146.50;5094215;28;20428;-54
2022/04/06 03:07:40;;;;;;;0.40;0.33;;;;;;;6.05;100.00;95142.59;5094370;28;20486;-54
2022/04/06 03:10:09;;;;;;;0.30;0.30;;;;;;;5.96;100.00;95149.31;5094353;28;20487;-54
2022/04/06 03:12:37;;;;;;;3.80;0.83;;;;;;;5.86;100.00;95144.72;5094500;28;20563;-54
2022/04/06 03:15:07;;;;;;;0.30;0.20;;;;;;;6.05;100.00;95147.84;5093982;28;20511;-54
2022/04/06 03:17:35;;;;;;;0.30;0.20;;;;;;;6.14;100.00;95149.03;5094104;28;20428;-54
2022/04/06 03:20:07;;;;;;;0.33;0.30;;;;;;;6.23;100.00;95145.72;5094339;28;20438;-54
2022/04/06 03:22:36;;;;;;;1.67;0.87;;;;;;;6.21;100.00;95149.63;5094261;28;20932;-55
2022/04/06 03:25:05;;;;;;;0.30;0.20;;;;;;;6.20;100.00;95148.81;5094559;28;20528;-55
2022/04/06 03:27:34;;;;;;;0.30;0.20;;;;;;;6.14;100.00;95151.66;5094573;28;20528;-55
2022/04/06 03:30:02;;;;;;;0.30;0.20;;;;;;;6.18;100.00;95156.19;5094285;28;20420;-55
2022/04/06 03:32:31;;;;;;;0.30;0.20;;;;;;;5.84;100.00;95162.56;5094096;28;21054;-55
2022/04/06 03:34:59;;;;;;;0.50;0.50;;;;;;;5.87;100.00;95169.97;5094489;28;20482;-55
2022/04/06 03:37:30;;;;;;;0.40;0.40;;;;;;;6.00;100.00;95155.66;5093916;28;20523;-55
2022/04/06 03:39:58;;;;;;;0.40;0.40;;;;;;;6.10;100.00;95167.13;5094059;28;20427;-55
2022/04/06 03:42:27;;;;;;;0.30;0.20;;;;;;;6.01;100.00;95147.56;5093962;28;20432;-55
2022/04/06 03:44:55;;;;;;;0.30;0.20;;;;;;;5.58;100.00;95163.25;5094119;28;20909;-55
2022/04/06 03:47:29;;;;;;;0.50;0.47;;;;;;;5.78;100.00;95163.53;5093947;28;20887;-55
2022/04/06 03:49:58;;;;;;;0.30;0.23;;;;;;;5.96;100.00;95165.91;5094313;28;20444;-55
2022/04/06 03:52:27;;;;;;;0.50;0.50;;;;;;;5.94;100.00;95164.56;5093898;28;20506;-55
2022/04/06 03:54:57;;;;;;;0.30;0.20;;;;;;;5.92;100.00;95170.03;5093907;28;20424;-55
2022/04/06 03:57:26;;;;;;;0.60;0.50;;;;;;;5.83;100.00;95176.75;5094093;28;20452;-55
2022/04/06 03:59:54;;;;;;;3.53;0.80;;;;;;;5.81;100.00;95178.81;5094070;28;20515;-55
2022/04/06 04:02:23;;;;;;;0.40;0.30;;;;;;;5.99;100.00;95188.28;5093540;28;20436;-55
2022/04/06 04:04:51;;;;;;;0.30;0.20;;;;;;;5.95;100.00;95189.81;5093417;28;20485;-55
2022/04/06 04:07:23;;;;;;;0.50;0.50;;;;;;;5.93;100.00;95195.31;5093550;28;20820;-55
2022/04/06 04:09:51;;;;;;;1.07;0.43;;;;;;;5.36;100.00;95200.00;5092888;28;20551;-55
2022/04/06 04:12:21;;;;;;;0.30;0.20;;;;;;;5.63;100.00;95194.88;5093488;28;20479;-55
2022/04/06 04:14:49;;;;;;;0.40;0.30;;;;;;;5.77;100.00;95193.47;5093367;28;20468;-55
2022/04/06 04:17:18;;;;;;;1.80;1.80;;;;;;;5.73;100.00;95197.63;5093618;28;20467;-55
2022/04/06 04:19:46;;;;;;;2.07;2.00;;;;;;;5.91;100.00;95193.97;5093708;28;20455;-55
2022/04/06 04:22:15;;;;;;;0.50;0.40;;;;;;;5.98;100.00;95205.91;5093226;28;20460;-55
2022/04/06 04:24:43;;;;;;;5.83;1.93;;;;;;;5.62;100.00;95191.44;5093453;28;20830;-55
2022/04/06 04:27:12;;;;;;;0.90;0.90;;;;;;;5.72;100.00;95194.22;5093259;28;20515;-55
2022/04/06 04:29:42;;;;;;;0.30;0.20;;;;;;;6.05;100.00;95205.72;5092290;28;20506;-55
2022/04/06 04:32:11;;;;;;;1.07;1.07;;;;;;;5.87;100.00;95209.44;5093252;28;20432;-55
2022/04/06 04:34:39;;;;;;;0.60;0.60;;;;;;;5.74;100.00;95215.03;5093032;28;20475;-55
2022/04/06 04:37:08;;;;;;;0.50;0.50;;;;;;;5.74;100.00;95209.75;5093275;28;20511;-55
2022/04/06 04:39:36;;;;;;;0.60;0.60;;;;;;;5.40;100.00;95223.94;5093134;28;20463;-55
2022/04/06 04:42:05;;;;;;;0.60;0.60;;;;;;;5.33;100.00;95223.31;5092922;28;20500;-55
2022/04/06 04:44:34;;;;;;;0.30;0.20;;;;;;;5.45;100.00;95224.81;5092859;28;21008;-55
2022/04/06 04:47:04;;;;;;;1.67;0.87;;;;;;;5.22;100.00;95224.97;5092703;28;20519;-53
2022/04/06 04:49:32;;;;;;;0.73;0.73;;;;;;;5.20;100.00;95224.41;5092699;28;20527;-54
2022/04/06 04:52:00;;;;;;;1.10;1.10;;;;;;;5.10;100.00;95227.69;5092825;28;20523;-54
2022/04/06 04:54:29;;;;;;;0.40;0.30;;;;;;;5.03;100.00;95240.16;5092952;28;20511;-54
2022/04/06 04:56:57;;;;;;;0.60;0.60;;;;;;;5.20;100.00;95242.81;5092355;28;20431;-54
2022/04/06 04:59:26;;;;;;;0.97;0.97;;;;;;;5.55;100.00;95219.72;5092137;28;20490;-54
2022/04/06 05:01:54;;;;;;;0.50;0.50;;;;;;;5.91;100.00;95231.59;5092462;28;20467;-54
2022/04/06 05:04:24;;;;;;;0.30;0.20;;;;;;;6.21;100.00;95239.91;5092585;28;20432;-54
2022/04/06 05:06:53;;;;;;;0.77;0.77;;;;;;;6.22;100.00;95217.78;5092297;28;20438;-54
2022/04/06 05:09:21;;;;;;;1.03;0.87;;;;;;;6.68;100.00;95218.34;5092416;28;20529;-55
2022/04/06 05:11:50;;;;;;;0.50;0.50;;;;;;;6.79;100.00;95222.66;5092389;28;20533;-54
2022/04/06 05:14:18;;;;;;;0.87;0.87;;;;;;;6.95;100.00;95224.44;5092254;28;20566;-55
2022/04/06 05:16:46;;;;;;;0.70;0.70;;;;;;;6.88;100.00;95211.44;5092365;28;20969;-55
2022/04/06 05:19:15;;;;;;;0.30;0.30;;;;;;;6.55;100.00;95230.06;5092205;28;20464;-55
2022/04/06 05:21:44;;;;;;;0.63;0.63;;;;;;;6.34;100.00;95234.28;5092252;28;20515;-55
2022/04/06 05:24:13;;;;;;;0.47;0.47;;;;;;;6.51;100.00;95225.50;5092079;28;20467;-54
2022/04/06 05:26:41;;;;;;;0.90;0.90;;;;;;;6.87;100.00;95230.94;5092226;28;20416;-54
2022/04/06 05:29:09;;;;;;;0.40;0.30;;;;;;;6.50;100.00;95237.09;5092127;28;20467;-54
2022/04/06 05:31:38;;;;;;;0.60;0.60;;;;;;;6.13;100.00;95237.69;5091725;28;20866;-53
2022/04/06 05:34:07;;;;;;;0.80;0.80;;;;;;;6.19;100.00;95241.97;5091824;28;20561;-54
2022/04/06 05:36:35;;;;;;;4.43;1.47;;;;;;;6.23;100.00;95243.06;5092189;28;20534;-54
2022/04/06 05:39:05;;;;;;;0.40;0.40;;;;;;;6.46;100.00;95246.50;5092401;28;20853;-54
2022/04/06 05:41:33;;;;;;;51.73;1.73;;;;;;;6.85;100.00;95237.50;5092103;28;20435;-54
2022/04/06 05:44:02;;;;;;;0.40;0.30;;;;;;;6.98;100.00;95231.84;5091482;28;20460;-54
2022/04/06 05:46:30;;;;;;;1.13;1.03;;;;;;;6.82;100.00;95233.53;5092037;28;20474;-54
2022/04/06 05:48:59;;;;;;;0.57;0.57;;;;;;;6.47;100.00;95241.03;5091752;28;20432;-54
2022/04/06 05:51:27;;;;;;;0.37;0.30;;;;;;;6.38;100.00;95216.16;5092060;28;20432;-54
2022/04/06 05:53:55;;;;;;;0.30;0.30;;;;;;;6.82;100.00;95237.97;5091660;28;20492;-54
2022/04/06 05:56:25;;;;;;;12.43;0.70;;;;;;;6.69;100.00;95233.09;5092015;28;20451;-54
2022/04/06 05:58:54;;;;;;;1.27;0.80;;;;;;;6.95;100.00;95242.88;5092017;28;20490;-54
2022/04/06 06:01:22;;;;;;;0.50;0.40;;;;;;;7.34;100.00;95235.56;5091787;28;20456;-54
2022/04/06 06:03:51;;;;;;;0.50;0.37;;;;;;;8.22;100.00;95243.59;5091808;28;20428;-54
2022/04/06 06:06:19;;;;;;;0.60;0.60;;;;;;;8.63;100.00;95246.47;5091119;28;20428;-54
2022/04/06 06:08:48;;;;;;;1.80;1.60;;;;;;;8.77;100.00;95244.94;5091462;28;20460;-53
2022/04/06 06:11:17;;;;;;;1.50;1.40;;;;;;;9.08;100.00;95245.84;5091696;28;20428;-53
2022/04/06 06:13:47;;;;;;;0.60;0.60;;;;;;;9.31;100.00;95242.72;5091482;28;20511;-54
2022/04/06 06:16:15;;;;;;;0.40;0.40;;;;;;;9.04;100.00;95239.47;5091637;28;20889;-54
2022/04/06 06:18:43;;;;;;;0.43;0.43;;;;;;;9.38;100.00;95251.97;5091424;28;20519;-53
2022/04/06 06:21:12;;;;;;;1.77;1.63;;;;;;;9.82;98.81;95244.31;5091719;28;20449;-54
2022/04/06 06:23:40;;;;;;;0.50;0.40;;;;;;;9.39;97.62;95235.03;5091451;28;20456;-53
2022/04/06 06:26:09;;;;;;;0.50;0.40;;;;;;;9.69;98.66;95247.47;5091715;28;20460;-53
2022/04/06 06:28:37;;;;;;;7.70;1.63;;;;;;;9.83;93.46;95243.25;5091617;28;20503;-54
2022/04/06 06:31:07;;;;;;;0.60;0.53;;;;;;;10.76;91.70;95232.97;5091347;28;20461;-53
2022/04/06 06:33:35;;;;;;;5.23;0.97;;;;;;;11.57;86.58;95229.84;5091318;28;20471;-53
2022/04/06 06:36:04;;;;;;;1.33;0.93;;;;;;;11.73;80.05;95229.50;5091419;28;20433;-53
2022/04/06 06:38:33;;;;;;;0.83;0.60;;;;;;;12.56;74.47;95221.22;5091341;28;20984;-53
2022/04/06 06:41:01;;;;;;;1.73;1.63;;;;;;;12.95;69.60;95234.34;5091772;28;20471;-53
2022/04/06 06:43:30;;;;;;;1.30;0.50;;;;;;;11.83;68.93;95220.63;5091425;28;20885;-53
2022/04/06 06:45:58;;;;;;;1.20;1.10;;;;;;;12.17;71.18;95232.00;5090762;28;20450;-53
2022/04/06 06:48:28;;;;;;;0.63;0.63;;;;;;;12.38;67.23;95229.94;5091445;28;20515;-53
2022/04/06 06:50:56;;;;;;;0.63;0.50;;;;;;;12.75;64.37;95236.16;5091397;28;21015;-53
2022/04/06 06:53:24;;;;;;;1.53;0.50;;;;;;;13.47;68.93;95226.19;5092592;28;20468;-53
2022/04/06 06:55:53;;;;;;;0.83;0.83;;;;;;;13.26;61.86;95220.34;5095280;28;20416;-53
2022/04/06 06:58:21;;;;;;;0.50;0.40;;;;;;;14.69;58.48;95219.56;5094968;28;20436;-53
2022/04/06 07:00:50;;;;;;;1.17;0.73;;;;;;;14.42;55.77;95218.47;5094972;28;20416;-52
2022/04/06 07:03:18;;;;;;;0.40;0.40;;;;;;;13.04;59.77;95227.28;5094863;28;20493;-52
2022/04/06 07:05:48;;;;;;;13.37;1.50;;;;;;;12.84;60.30;95216.91;5094894;28;20955;-52
2022/04/06 07:08:17;;;;;;;2.80;0.53;;;;;;;12.35;60.60;95219.84;5095176;28;20804;-52
2022/04/06 07:10:46;;;;;;;1.33;0.80;;;;;;;12.14;65.61;95208.69;5094899;28;20888;-53
2022/04/06 07:13:16;;;;;;;1.73;1.50;;;;;;;13.34;68.61;95226.91;5094588;28;20433;-53
2022/04/06 07:15:45;;;;;;;1.13;1.03;;;;;;;13.68;62.59;95229.31;5094585;28;21078;-53
2022/04/06 07:18:14;;;;;;;0.40;0.30;;;;;;;13.59;61.43;95228.38;5094661;28;20979;-53
2022/04/06 07:20:43;;;;;;;0.83;0.83;;;;;;;13.75;61.32;95227.88;5094700;28;20456;-53
2022/04/06 07:23:13;;;;;;;9.10;1.00;;;;;;;13.56;62.10;95227.09;5094553;28;21025;-53
2022/04/06 07:25:42;;;;;;;0.67;0.67;;;;;;;13.78;63.32;95227.31;5094485;28;20474;-54
2022/04/06 07:28:10;;;;;;;0.40;0.30;;;;;;;13.89;60.26;95231.38;5094461;28;20441;-54
2022/04/06 07:30:38;;;;;;;0.50;0.47;;;;;;;15.14;55.69;95227.44;5094393;28;20866;-54
2022/04/06 07:33:09;;;;;;;1.17;1.07;;;;;;;15.34;53.32;95209.38;5094698;28;20428;-55
2022/04/06 07:35:38;;;;;;;0.50;0.43;;;;;;;15.38;52.58;95221.84;5094551;28;20537;-55
2022/04/06 07:38:07;;;;;;;0.40;0.37;;;;;;;15.38;52.62;95231.75;5094432;28;20487;-55
2022/04/06 07:40:36;;;;;;;0.40;0.30;;;;;;;16.73;48.26;95218.78;5094623;28;20452;-56
2022/04/06 07:43:05;;;;;;;0.70;0.70;;;;;;;16.40;47.96;95220.97;5094450;28;20825;-56
2022/04/06 07:45:33;;;;;;;1.27;1.17;;;;;;;16.54;47.87;95216.38;5094390;28;20503;-56
2022/04/06 07:48:03;;;;;;;0.50;0.30;;;;;;;15.97;48.05;95212.72;5094297;28;20436;-56
2022/04/06 07:50:32;;;;;;;0.50;0.40;;;;;;;15.78;47.77;95218.28;5094009;28;20428;-56
2022/04/06 07:53:00;;;;;;;0.73;0.73;;;;;;;15.30;49.68;95221.78;5094323;28;20425;-56
2022/04/06 07:55:29;;;;;;;0.43;0.40;;;;;;;16.05;49.31;95213.88;5093838;28;20479;-57
2022/04/06 07:57:59;;;;;;;0.63;0.60;;;;;;;14.72;52.94;95227.78;5092987;28;20478;-57
2022/04/06 08:00:32;;;;;;;1.33;0.83;;;;;;;15.78;57.55;95217.47;5093844;28;20513;-57
2022/04/06 08:03:01;;;;;;;0.40;0.30;;;;;;;15.59;49.86;95214.19;5093052;28;20568;-58
2022/04/06 08:05:30;;;;;;;3.07;0.40;;;;;;;16.05;50.02;95193.28;5093562;28;20431;-58
2022/04/06 08:07:59;;;;;;;1.03;0.50;;;;;;;17.04;46.36;95203.44;5093379;28;20425;-58
2022/04/06 08:10:30;;;;;;;0.80;0.50;;;;;;;17.65;56.51;95208.59;5093579;28;20500;-58
2022/04/06 08:13:01;;;;;;;1.60;1.50;;;;;;;17.47;46.88;95206.19;5093482;28;20432;-59
2022/04/06 08:15:30;;;;;;;0.60;0.60;;;;;;;17.50;44.16;95176.88;5093530;28;20500;-59
2022/04/06 08:17:58;;;;;;;0.40;0.30;;;;;;;18.77;44.01;95206.44;5093362;28;20460;-59
2022/04/06 08:20:27;;;;;;;3.63;2.60;;;;;;;18.28;44.96;95204.38;5093764;28;20464;-59
2022/04/06 08:22:59;;;;;;;0.93;0.90;;;;;;;18.12;42.86;95206.78;5093255;28;20840;-59
2022/04/06 08:25:28;;;;;;;0.70;0.70;;;;;;;17.44;45.92;95196.88;5093241;28;20925;-58
2022/04/06 08:28:08;;;;;;;1.90;1.23;;;;;;;18.13;43.79;95194.16;5093331;28;20912;-58
2022/04/06 08:30:39;;;;;;;0.40;0.30;;;;;;;19.07;40.80;95196.50;5093451;28;20448;-59
2022/04/06 08:33:10;;;;;;;0.50;0.40;;;;;;;18.86;41.75;95191.09;5093390;28;20436;-58
2022/04/06 08:35:39;;;;;;;0.50;0.50;;;;;;;19.15;40.53;95194.88;5093275;28;20971;-58
2022/04/06 08:38:07;;;;;;;0.53;0.47;;;;;;;19.32;40.05;95189.38;5093146;28;20463;-58
2022/04/06 08:40:37;;;;;;;0.40;0.27;;;;;;;20.20;38.70;95179.94;5093237;28;20475;-58
2022/04/06 08:43:08;;;;;;;0.50;0.50;;;;;;;19.68;42.49;95184.25;5093004;28;20467;-53
2022/04/06 08:45:37;;;;;;;0.60;0.40;;;;;;;20.69;41.44;95167.38;5093054;28;20555;-54
2022/04/06 08:48:08;;;;;;;0.60;0.47;;;;;;;19.98;39.47;95180.31;5092829;28;20428;-58
2022/04/06 08:50:38;;;;;;;0.47;0.37;;;;;;;20.50;39.40;95179.78;5094040;28;20527;-57
2022/04/06 08:53:08;;;;;;;0.70;0.50;;;;;;;21.14;37.37;95179.94;5093224;28;20566;-57
2022/04/06 08:55:36;;;;;;;0.50;0.43;;;;;;;21.51;36.64;95166.03;5092504;28;21056;-57
2022/04/06 08:58:07;;;;;;;1.43;1.33;;;;;;;20.33;37.84;95174.59;5092792;28;20856;-58
2022/04/06 09:00:35;;;;;;;0.77;0.77;;;;;;;20.79;39.66;95174.22;5092713;28;20420;-57
2022/04/06 09:03:03;;;;;;;0.60;0.60;;;;;;;20.93;37.97;95169.25;5092597;28;20452;-57
2022/04/06 09:05:32;;;;;;;1.43;1.40;;;;;;;20.30;40.35;95169.88;5092987;28;20515;-57
2022/04/06 09:08:03;;;;;;;0.40;0.40;;;;;;;21.94;36.76;95178.03;5092541;28;20417;-57
2022/04/06 09:10:36;;;;;;;0.67;0.60;;;;;;;22.47;37.27;95152.44;5092197;28;20472;-58
2022/04/06 09:13:11;;;;;;;6.37;0.50;;;;;;;21.65;35.96;95159.47;5092546;28;20460;-58
2022/04/06 09:15:41;;;;;;;3.13;2.83;;;;;;;20.52;38.55;95156.00;5092780;28;20463;-59
2022/04/06 09:18:10;;;;;;;0.50;0.40;;;;;;;19.25;41.48;95163.00;5092274;28;20443;-58
2022/04/06 09:20:38;;;;;;;0.53;0.53;;;;;;;20.08;40.70;95147.63;5092666;28;20448;-58
2022/04/06 09:23:07;;;;;;;0.40;0.30;;;;;;;22.19;37.55;95140.94;5093776;28;20912;-58
2022/04/06 09:25:37;;;;;;;0.50;0.30;;;;;;;21.75;38.74;95145.50;5092371;28;20806;-59
2022/04/06 09:28:11;;;;;;;1.67;0.37;;;;;;;22.61;37.06;95147.41;5092361;28;20448;-58
2022/04/06 09:30:42;;;;;;;1.60;0.40;;;;;;;20.42;39.58;95130.31;5092258;28;20495;-58
2022/04/06 09:33:15;;;;;;;0.60;0.50;;;;;;;22.12;37.88;95120.72;5092348;28;20845;-58
2022/04/06 09:35:44;;;;;;;0.40;0.40;;;;;;;23.41;36.06;95120.69;5092038;28;20503;-58
2022/04/06 09:38:14;;;;;;;0.40;0.30;;;;;;;23.02;36.80;95125.22;5092040;28;20460;-57
2022/04/06 09:40:43;;;;;;;1.53;0.40;;;;;;;23.72;35.44;95109.75;5092077;28;20448;-59
2022/04/06 09:43:26;;;;;;;0.50;0.50;;;;;;;24.32;36.32;95102.75;5091990;28;20443;-58
2022/04/06 09:48:56;;;;;;;0.30;0.30;;;;;;;25.25;33.16;95087.53;5091892;28;20436;-58
2022/04/06 09:51:24;;;;;;;0.50;0.40;;;;;;;25.06;33.40;95084.16;5091769;28;21132;-58
2022/04/06 09:53:54;;;;;;;0.40;0.40;;;;;;;24.50;33.53;95090.28;5091809;28;20479;-57
2022/04/06 09:56:23;;;;;;;0.40;0.30;;;;;;;24.29;35.66;95081.00;5091789;28;20547;-58
2022/04/06 09:58:53;;;;;;;0.43;0.40;;;;;;;23.49;34.90;95087.25;5091710;28;20472;-58
2022/04/06 10:01:22;;;;;;;0.60;0.43;;;;;;;24.31;35.14;95076.78;5091223;28;20427;-58
2022/04/06 10:03:54;;;;;;;0.40;0.40;;;;;;;24.06;34.99;95070.13;5092127;28;20455;-59
2022/04/06 10:06:23;;;;;;;0.70;0.60;;;;;;;25.17;33.69;95069.59;5092600;28;20494;-57
2022/04/06 10:08:53;;;;;;;2.20;0.60;;;;;;;23.68;34.51;95062.88;5091788;28;20498;-58
2022/04/06 10:11:22;;;;;;;0.40;0.30;;;;;;;23.59;36.07;95059.63;5092257;28;20484;-59
2022/04/06 10:13:52;;;;;;;0.40;0.30;;;;;;;24.47;34.25;95052.28;5091365;28;21012;-58
2022/04/06 10:16:30;;;;;;;0.40;0.30;;;;;;;24.40;31.79;95044.03;5091549;28;20460;-58
2022/04/06 10:18:59;;;;;;;0.40;0.33;;;;;;;25.04;32.29;95038.44;5091924;28;20966;-59
2022/04/06 10:21:37;;;;;;;0.73;0.60;;;;;;;26.44;31.34;95037.63;5091229;28;20497;-61
2022/04/06 10:24:21;;;;;;;0.40;0.30;;;;;;;27.21;29.26;95031.94;5091684;28;20896;-58
2022/04/06 10:26:59;;;;;;;0.40;0.30;;;;;;;26.65;29.39;95037.00;5091825;28;20428;-59
2022/04/06 10:29:28;;;;;;;0.40;0.30;;;;;;;27.03;28.80;95031.06;5094819;28;20993;-58
2022/04/06 10:31:57;;;;;;;0.40;0.30;;;;;;;27.61;28.02;95012.69;5095495;28;20424;-58
2022/04/06 10:34:30;;;;;;;0.40;0.30;;;;;;;27.61;29.53;94995.56;5095560;28;20468;-59
2022/04/06 10:37:11;;;;;;;0.40;0.30;;;;;;;26.46;27.08;95014.34;5095730;28;20460;-58
2022/04/06 10:39:59;;;;;;;0.50;0.50;;;;;;;27.51;26.34;95007.97;5095352;28;20423;-59
2022/04/06 10:42:32;;;;;;;0.40;0.30;;;;;;;28.85;25.81;95007.31;5095702;28;20428;-58
2022/04/06 10:45:01;;;;;;;0.40;0.40;;;;;;;27.60;24.90;94962.09;5095324;28;20428;-58
2022/04/06 10:47:32;;;;;;;0.50;0.30;;;;;;;28.15;24.33;94994.50;5095358;28;20936;-59
2022/04/06 10:50:23;;;;;;;0.50;0.50;;;;;;;27.35;24.31;94999.31;5095126;28;20428;-58
2022/04/06 10:53:28;;;;;;;0.40;0.30;;;;;;;25.56;26.35;94994.13;5094934;28;20448;-57
2022/04/06 10:55:58;;;;;;;6.73;0.50;;;;;;;26.42;28.09;94986.38;5094964;28;20562;-57
2022/04/06 10:58:27;;;;;;;0.60;0.57;;;;;;;25.53;23.99;94989.44;5095079;28;20432;-57
2022/04/06 11:01:14;;;;;;;0.40;0.33;;;;;;;25.29;25.67;94983.72;5095188;28;20456;-58
2022/04/06 11:03:56;;;;;;;0.40;0.40;;;;;;;24.68;25.44;94976.72;5094838;28;20436;-57
2022/04/06 11:06:56;;;;;;;9.83;0.87;;;;;;;25.55;24.48;94970.09;5096007;28;20438;-58
2022/04/06 11:12:13;;;;;;;0.50;0.40;;;;;;;25.86;24.30;94964.94;5095318;28;20556;-58
2022/04/06 11:14:44;;;;;;;0.73;0.73;;;;;;;25.30;24.12;94969.00;5094628;28;20436;-56
2022/04/06 11:17:42;;;;;;;0.40;0.30;;;;;;;25.39;23.95;94967.56;5094728;28;21000;-58
2022/04/06 11:20:14;;;;;;;0.50;0.30;;;;;;;26.17;22.97;94952.81;5094507;28;20424;-58
2022/04/06 11:22:44;;;;;;;0.40;0.30;;;;;;;25.87;23.88;94944.00;5093376;28;20519;-57
2022/04/06 11:25:15;;;;;;;0.70;0.60;;;;;;;26.46;22.59;94954.56;5095333;28;20518;-58
2022/04/06 11:27:45;;;;;;;0.50;0.50;;;;;;;24.88;23.11;94953.78;5094598;28;20892;-56
2022/04/06 11:30:16;;;;;;;0.30;0.30;;;;;;;24.77;23.52;94952.81;5094644;28;20502;-57
2022/04/06 11:32:51;;;;;;;1.10;0.60;;;;;;;26.05;23.98;94941.44;5094308;28;20453;-57
2022/04/06 11:35:22;;;;;;;0.90;0.80;;;;;;;24.94;20.98;94943.41;5094264;28;20526;-57
2022/04/06 11:37:56;;;;;;;0.50;0.50;;;;;;;25.27;21.11;94937.97;5094087;28;20472;-57
2022/04/06 11:40:26;;;;;;;2.30;2.20;;;;;;;25.00;21.74;94945.41;5093737;28;20497;-56
2022/04/06 11:42:56;;;;;;;0.53;0.53;;;;;;;24.15;22.17;94935.31;5094222;28;20473;-56
2022/04/06 11:45:26;;;;;;;0.87;0.60;;;;;;;23.80;22.26;94934.75;5094474;28;20456;-56
2022/04/06 11:47:57;;;;;;;0.40;0.40;;;;;;;23.50;22.38;94937.34;5093760;28;20431;-57
2022/04/06 11:50:31;;;;;;;0.90;0.83;;;;;;;23.93;20.00;94930.72;5093843;28;20464;-57
2022/04/06 11:53:02;;;;;;;0.53;0.50;;;;;;;24.42;20.99;94927.97;5093935;28;20466;-57
2022/04/06 11:55:47;;;;;;;0.40;0.30;;;;;;;23.89;20.15;94860.25;5094168;28;20849;-57
2022/04/06 11:58:29;;;;;;;0.40;0.30;;;;;;;24.70;20.84;94908.59;5093880;28;20444;-57